createdAt,value
2023-03-27T00:01:16.888Z,7.40
2023-03-27T00:03:43.483Z,7.31
2023-03-27T00:06:16.148Z,7.29
2023-03-27T00:08:47.510Z,7.33
2023-03-27T00:11:15.402Z,7.20
2023-03-27T00:13:49.517Z,7.31
2023-03-27T00:16:25.131Z,7.27
2023-03-27T00:18:52.945Z,7.20
2023-03-27T00:21:19.429Z,7.12
2023-03-27T00:23:46.002Z,7.16
2023-03-27T00:26:12.688Z,7.20
2023-03-27T00:28:39.268Z,7.30
2023-03-27T00:31:11.398Z,7.21
2023-03-27T00:33:37.888Z,6.90
2023-03-27T00:36:04.580Z,6.88
2023-03-27T00:38:31.406Z,6.86
2023-03-27T00:40:58.119Z,6.85
2023-03-27T00:43:33.765Z,6.82
2023-03-27T00:46:08.055Z,6.87
2023-03-27T00:48:37.574Z,6.69
2023-03-27T00:51:06.109Z,6.51
2023-03-27T00:53:33.158Z,6.40
2023-03-27T00:56:03.596Z,6.28
2023-03-27T00:59:05.253Z,6.42
2023-03-27T01:01:32.137Z,6.29
2023-03-27T01:04:02.129Z,6.22
2023-03-27T01:06:31.131Z,6.28
2023-03-27T01:08:57.739Z,6.27
2023-03-27T01:11:58.040Z,6.38
2023-03-27T01:14:33.533Z,6.15
2023-03-27T01:17:37.654Z,6.26
2023-03-27T01:20:22.965Z,6.16
2023-03-27T01:23:01.726Z,6.11
2023-03-27T01:25:56.693Z,6.25
2023-03-27T01:29:00.601Z,6.03
2023-03-27T01:31:44.639Z,5.98
2023-03-27T01:34:16.906Z,5.86
2023-03-27T01:37:14.637Z,5.89
2023-03-27T01:40:07.955Z,5.72
2023-03-27T01:42:54.875Z,5.73
2023-03-27T01:45:29.016Z,5.65
2023-03-27T01:48:04.254Z,5.41
2023-03-27T01:50:40.327Z,5.38
2023-03-27T01:53:13.856Z,5.22
2023-03-27T01:55:46.540Z,5.08
2023-03-27T01:58:38.178Z,5.23
2023-03-27T02:01:08.804Z,5.03
2023-03-27T02:03:41.696Z,5.02
2023-03-27T02:06:33.416Z,5.20
2023-03-27T02:09:13.367Z,5.29
2023-03-27T02:12:01.086Z,5.12
2023-03-27T02:14:32.817Z,5.27
2023-03-27T02:17:03.572Z,5.12
2023-03-27T02:19:35.061Z,5.24
2023-03-27T02:22:01.637Z,4.99
2023-03-27T02:24:28.862Z,5.17
2023-03-27T02:27:01.878Z,5.00
2023-03-27T02:30:10.473Z,5.17
2023-03-27T02:32:40.013Z,5.13
2023-03-27T02:35:23.163Z,5.01
2023-03-27T02:38:04.439Z,4.91
2023-03-27T02:40:45.546Z,5.05
2023-03-27T02:43:33.412Z,4.85
2023-03-27T02:46:12.207Z,4.98
2023-03-27T02:48:54.929Z,5.00
2023-03-27T02:51:28.769Z,4.65
2023-03-27T02:54:13.167Z,4.81
2023-03-27T02:56:48.670Z,4.85
2023-03-27T02:59:22.478Z,4.77
2023-03-27T03:01:49.810Z,5.00
2023-03-27T03:04:29.509Z,4.91
2023-03-27T03:06:56.129Z,4.87
2023-03-27T03:09:24.817Z,4.93
2023-03-27T03:11:53.156Z,4.87
2023-03-27T03:14:24.658Z,4.69
2023-03-27T03:16:51.813Z,4.83
2023-03-27T03:19:18.307Z,4.92
2023-03-27T03:21:46.846Z,4.95
2023-03-27T03:24:13.242Z,4.89
2023-03-27T03:26:40.088Z,4.79
2023-03-27T03:29:06.587Z,4.70
2023-03-27T03:31:44.403Z,4.79
2023-03-27T03:34:22.426Z,4.93
2023-03-27T03:36:49.657Z,4.84
2023-03-27T03:39:17.443Z,4.82
2023-03-27T03:41:43.855Z,5.14
2023-03-27T03:44:10.476Z,4.85
2023-03-27T03:46:36.991Z,4.64
2023-03-27T03:49:04.894Z,4.46
2023-03-27T03:51:32.760Z,4.54
2023-03-27T03:53:59.185Z,4.65
2023-03-27T03:56:27.765Z,4.35
2023-03-27T03:58:54.144Z,4.51
2023-03-27T04:01:21.635Z,4.58
2023-03-27T04:03:48.961Z,4.56
2023-03-27T04:06:17.625Z,4.51
2023-03-27T04:08:47.134Z,4.54
2023-03-27T04:11:13.563Z,4.46
2023-03-27T04:13:40.058Z,4.25
2023-03-27T04:16:08.075Z,4.51
2023-03-27T04:18:35.379Z,4.34
2023-03-27T04:21:02.117Z,4.44
2023-03-27T04:23:30.423Z,4.34
2023-03-27T04:26:01.088Z,4.39
2023-03-27T04:28:30.265Z,4.34
2023-03-27T04:30:58.159Z,4.28
2023-03-27T04:33:25.728Z,4.42
2023-03-27T04:36:06.935Z,4.46
2023-03-27T04:38:38.134Z,4.53
2023-03-27T04:41:06.067Z,4.45
2023-03-27T04:43:36.506Z,4.41
2023-03-27T04:46:05.824Z,4.39
2023-03-27T04:48:32.651Z,4.51
2023-03-27T04:50:59.230Z,4.50
2023-03-27T04:53:30.013Z,4.42
2023-03-27T04:55:57.223Z,4.50
2023-03-27T04:58:25.751Z,4.45
2023-03-27T05:00:55.663Z,4.50
2023-03-27T05:03:24.024Z,4.39
2023-03-27T05:05:50.735Z,4.38
2023-03-27T05:08:18.120Z,4.53
2023-03-27T05:10:46.501Z,4.43
2023-03-27T05:13:13.450Z,4.32
2023-03-27T05:15:39.797Z,4.25
2023-03-27T05:18:07.160Z,4.29
2023-03-27T05:20:34.374Z,4.30
2023-03-27T05:23:00.930Z,4.20
2023-03-27T05:25:28.738Z,4.29
2023-03-27T05:27:55.376Z,4.41
2023-03-27T05:30:23.619Z,4.41
2023-03-27T05:32:52.078Z,4.45
2023-03-27T05:35:20.944Z,4.57
2023-03-27T05:37:48.923Z,4.44
2023-03-27T05:40:17.593Z,4.54
2023-03-27T05:42:45.329Z,4.52
2023-03-27T05:45:13.336Z,4.66
2023-03-27T05:47:48.531Z,4.44
2023-03-27T05:50:16.497Z,4.49
2023-03-27T05:52:43.007Z,4.71
2023-03-27T05:55:10.358Z,4.79
2023-03-27T05:57:39.301Z,4.88
2023-03-27T06:00:14.093Z,4.82
2023-03-27T06:02:44.866Z,5.06
2023-03-27T06:05:16.202Z,4.97
2023-03-27T06:07:43.863Z,5.04
2023-03-27T06:10:13.692Z,5.31
2023-03-27T06:12:41.588Z,5.25
2023-03-27T06:15:09.687Z,5.09
2023-03-27T06:17:38.215Z,5.29
2023-03-27T06:20:15.420Z,5.41
2023-03-27T06:22:48.383Z,5.52
2023-03-27T06:25:15.931Z,5.47
2023-03-27T06:27:43.329Z,5.39
2023-03-27T06:30:11.251Z,5.36
2023-03-27T06:32:43.554Z,5.57
2023-03-27T06:35:10.230Z,6.05
2023-03-27T06:37:36.795Z,5.79
2023-03-27T06:40:09.344Z,5.76
2023-03-27T06:42:36.877Z,5.94
2023-03-27T06:45:05.059Z,5.77
2023-03-27T06:47:33.151Z,5.97
2023-03-27T06:50:01.186Z,6.11
2023-03-27T06:52:27.654Z,5.92
2023-03-27T06:54:54.042Z,6.00
2023-03-27T06:57:20.461Z,6.37
2023-03-27T06:59:47.166Z,6.19
2023-03-27T07:02:13.683Z,6.38
2023-03-27T07:04:40.852Z,6.29
2023-03-27T07:07:08.085Z,6.14
2023-03-27T07:09:35.454Z,6.11
2023-03-27T07:12:02.983Z,6.27
2023-03-27T07:14:29.391Z,6.36
2023-03-27T07:16:55.745Z,6.07
2023-03-27T07:19:22.146Z,6.15
2023-03-27T07:21:48.572Z,6.45
2023-03-27T07:24:14.936Z,6.35
2023-03-27T07:26:41.276Z,6.43
2023-03-27T07:29:10.597Z,6.58
2023-03-27T07:34:09.420Z,6.56
2023-03-27T07:36:36.353Z,6.64
2023-03-27T07:39:02.795Z,6.52
2023-03-27T07:41:30.178Z,6.63
2023-03-27T07:43:57.079Z,6.56
2023-03-27T07:46:24.382Z,6.50
2023-03-27T07:48:51.133Z,6.44
2023-03-27T07:51:17.626Z,6.30
2023-03-27T07:53:44.473Z,6.40
2023-03-27T07:56:11.045Z,6.38
2023-03-27T07:58:37.412Z,6.21
2023-03-27T08:01:04.531Z,6.32
2023-03-27T08:03:31.299Z,6.50
2023-03-27T08:06:00.508Z,6.71
2023-03-27T08:08:28.184Z,6.60
2023-03-27T08:10:55.406Z,6.97
2023-03-27T08:13:21.810Z,6.89
2023-03-27T08:15:48.252Z,7.05
2023-03-27T08:18:14.657Z,7.19
2023-03-27T08:20:42.336Z,7.12
2023-03-27T08:23:08.670Z,7.30
2023-03-27T08:25:35.682Z,7.48
2023-03-27T08:28:02.758Z,7.26
2023-03-27T08:30:29.624Z,7.30
2023-03-27T08:32:56.851Z,7.26
2023-03-27T08:35:23.364Z,7.11
2023-03-27T08:37:49.839Z,6.80
2023-03-27T08:40:26.153Z,6.66
2023-03-27T08:42:57.118Z,6.83
2023-03-27T08:45:31.762Z,6.76
2023-03-27T08:48:05.427Z,6.91
2023-03-27T08:50:37.617Z,6.84
2023-03-27T08:53:11.283Z,7.06
2023-03-27T08:55:41.345Z,6.93
2023-03-27T08:58:19.738Z,7.07
2023-03-27T09:00:53.557Z,7.72
2023-03-27T09:03:41.162Z,7.70
2023-03-27T09:06:18.546Z,7.81
2023-03-27T09:08:44.896Z,7.83
2023-03-27T09:11:39.368Z,8.05
2023-03-27T09:14:19.603Z,7.77
2023-03-27T09:16:50.239Z,7.71
2023-03-27T09:19:33.487Z,7.89
2023-03-27T09:22:07.855Z,7.82
2023-03-27T09:24:43.480Z,7.96
2023-03-27T09:27:19.438Z,8.19
2023-03-27T09:30:14.284Z,8.25
2023-03-27T09:32:42.835Z,8.03
2023-03-27T09:35:14.466Z,8.30
2023-03-27T09:37:42.726Z,8.47
2023-03-27T09:40:21.630Z,8.35
2023-03-27T09:42:49.489Z,8.17
2023-03-27T09:45:16.473Z,8.17
2023-03-27T09:47:55.097Z,8.02
2023-03-27T09:50:31.033Z,7.71
2023-03-27T09:53:19.234Z,7.32
2023-03-27T09:56:13.087Z,6.78
2023-03-27T09:58:43.953Z,6.30
2023-03-27T10:01:37.183Z,6.10
2023-03-27T10:04:20.017Z,5.97
2023-03-27T10:06:49.176Z,6.29
2023-03-27T10:09:23.311Z,6.74
2023-03-27T10:11:51.691Z,6.95
2023-03-27T10:14:21.368Z,6.95
2023-03-27T10:16:48.171Z,6.16
2023-03-27T10:19:36.239Z,6.19
2023-03-27T10:22:31.048Z,5.92
2023-03-27T10:25:13.587Z,5.60
2023-03-27T10:27:43.566Z,6.18
2023-03-27T10:30:37.921Z,6.73
2023-03-27T10:33:04.413Z,6.75
2023-03-27T10:35:37.868Z,6.66
2023-03-27T10:38:15.314Z,7.08
2023-03-27T10:40:44.771Z,7.16
2023-03-27T10:43:16.599Z,7.73
2023-03-27T10:45:49.715Z,7.17
2023-03-27T10:48:38.987Z,7.57
2023-03-27T10:51:13.182Z,7.60
2023-03-27T10:53:49.144Z,7.95
2023-03-27T10:56:18.995Z,8.28
2023-03-27T10:58:50.894Z,8.53
2023-03-27T11:01:26.425Z,8.69
2023-03-27T11:04:01.120Z,8.25
2023-03-27T11:06:34.031Z,8.54
2023-03-27T11:09:09.887Z,8.56
2023-03-27T11:11:41.066Z,8.43
2023-03-27T11:14:17.426Z,8.20
2023-03-27T11:16:56.977Z,8.14
2023-03-27T11:19:53.839Z,8.26
2023-03-27T11:22:49.448Z,7.96
2023-03-27T11:25:29.669Z,7.58
2023-03-27T11:28:10.347Z,7.55
2023-03-27T11:30:44.366Z,7.13
2023-03-27T11:33:38.602Z,7.61
2023-03-27T11:36:37.555Z,7.74
2023-03-27T11:39:15.509Z,7.76
2023-03-27T11:41:47.326Z,7.99
2023-03-27T11:44:13.732Z,8.32
2023-03-27T11:46:49.228Z,8.02
2023-03-27T11:49:15.584Z,8.45
2023-03-27T11:51:53.836Z,8.66
2023-03-27T11:54:49.000Z,8.71
2023-03-27T11:57:24.252Z,9.07
2023-03-27T12:00:18.801Z,9.05
2023-03-27T12:03:07.855Z,9.28
2023-03-27T12:05:49.495Z,9.34
2023-03-27T12:08:28.098Z,9.61
2023-03-27T12:10:58.938Z,9.47
2023-03-27T12:14:01.149Z,8.97
2023-03-27T12:17:01.118Z,9.22
2023-03-27T12:20:01.988Z,8.88
2023-03-27T12:22:28.312Z,8.11
2023-03-27T12:25:12.633Z,7.59
2023-03-27T12:27:52.062Z,7.18
2023-03-27T12:30:23.995Z,7.01
2023-03-27T12:33:25.127Z,6.93
2023-03-27T12:35:57.718Z,6.95
2023-03-27T12:38:30.041Z,7.05
2023-03-27T12:41:20.704Z,6.78
2023-03-27T12:43:48.246Z,7.16
2023-03-27T12:46:14.626Z,7.34
2023-03-27T12:48:50.239Z,7.53
2023-03-27T12:51:20.320Z,7.56
2023-03-27T12:53:54.682Z,7.85
2023-03-27T12:56:26.802Z,7.98
2023-03-27T12:58:55.388Z,8.27
2023-03-27T13:01:51.507Z,7.86
2023-03-27T13:04:39.593Z,7.93
2023-03-27T13:07:28.958Z,7.97
2023-03-27T13:10:17.293Z,8.31
2023-03-27T13:12:53.715Z,8.56
2023-03-27T13:15:22.793Z,8.64
2023-03-27T13:18:07.575Z,8.89
2023-03-27T13:20:52.635Z,9.29
2023-03-27T13:23:38.698Z,9.33
2023-03-27T13:26:22.596Z,9.65
2023-03-27T13:28:51.858Z,9.89
2023-03-27T13:31:46.192Z,9.57
2023-03-27T13:34:21.028Z,9.46
2023-03-27T13:36:48.952Z,9.44
2023-03-27T13:39:22.245Z,9.24
2023-03-27T13:41:56.244Z,9.14
2023-03-27T13:44:35.751Z,9.46
2023-03-27T13:47:10.135Z,9.15
2023-03-27T13:50:15.111Z,9.20
2023-03-27T13:52:48.235Z,9.08
2023-03-27T13:55:34.647Z,9.05
2023-03-27T13:58:30.719Z,9.22
2023-03-27T14:01:09.439Z,9.25
2023-03-27T14:03:54.927Z,9.13
2023-03-27T14:06:42.192Z,9.26
2023-03-27T14:09:35.319Z,9.40
2023-03-27T14:12:30.628Z,9.46
2023-03-27T14:15:15.520Z,9.13
2023-03-27T14:17:44.896Z,9.48
2023-03-27T14:20:20.336Z,9.69
2023-03-27T14:23:07.332Z,9.61
2023-03-27T14:25:38.192Z,9.49
2023-03-27T14:28:08.873Z,9.53
2023-03-27T14:30:47.512Z,9.48
2023-03-27T14:33:20.092Z,9.39
2023-03-27T14:35:57.234Z,9.55
2023-03-27T14:38:25.389Z,9.40
2023-03-27T14:40:57.259Z,9.63
2023-03-27T14:43:27.538Z,9.87
2023-03-27T14:46:05.974Z,9.97
2023-03-27T14:48:33.460Z,10.04
2023-03-27T14:51:06.051Z,9.92
2023-03-27T14:53:36.334Z,9.82
2023-03-27T14:56:12.868Z,9.98
2023-03-27T14:58:46.107Z,10.06
2023-03-27T15:01:16.919Z,10.12
2023-03-27T15:03:45.830Z,10.18
2023-03-27T15:06:17.184Z,10.19
2023-03-27T15:08:52.023Z,10.19
2023-03-27T15:11:37.424Z,9.97
2023-03-27T15:14:05.350Z,10.08
2023-03-27T15:16:35.769Z,9.94
2023-03-27T15:19:12.465Z,9.72
2023-03-27T15:21:58.499Z,9.54
2023-03-27T15:24:38.301Z,9.06
2023-03-27T15:27:05.802Z,8.66
2023-03-27T15:29:43.848Z,8.58
2023-03-27T15:32:14.508Z,8.52
2023-03-27T15:34:47.957Z,8.51
2023-03-27T15:37:23.890Z,8.15
2023-03-27T15:40:36.685Z,8.26
2023-03-27T15:43:05.045Z,8.30
2023-03-27T15:45:41.778Z,8.38
2023-03-27T15:48:35.259Z,8.30
2023-03-27T15:51:06.163Z,8.22
2023-03-27T15:53:37.095Z,8.39
2023-03-27T15:56:26.095Z,8.45
2023-03-27T15:59:00.123Z,8.53
2023-03-27T16:01:37.143Z,8.38
2023-03-27T16:04:07.642Z,8.52
2023-03-27T16:06:38.595Z,8.35
2023-03-27T16:09:27.001Z,8.41
2023-03-27T16:11:55.307Z,8.39
2023-03-27T16:14:32.058Z,8.32
2023-03-27T16:17:09.947Z,8.44
2023-03-27T16:19:53.379Z,8.55
2023-03-27T16:22:22.724Z,8.57
2023-03-27T16:24:49.437Z,8.51
2023-03-27T16:27:17.229Z,8.23
2023-03-27T16:29:43.682Z,7.70
2023-03-27T16:32:13.206Z,7.12
2023-03-27T16:34:40.566Z,6.68
2023-03-27T16:37:07.616Z,6.46
2023-03-27T16:39:34.443Z,6.46
2023-03-27T16:42:00.867Z,6.37
2023-03-27T16:44:27.267Z,6.02
2023-03-27T16:46:53.665Z,5.87
2023-03-27T16:49:20.066Z,5.66
2023-03-27T16:51:46.440Z,5.73
2023-03-27T16:54:12.811Z,5.92
2023-03-27T16:56:39.230Z,6.14
2023-03-27T16:59:05.618Z,6.30
2023-03-27T17:01:32.097Z,6.36
2023-03-27T17:03:58.551Z,6.63
2023-03-27T17:06:25.195Z,6.52
2023-03-27T17:08:55.475Z,6.89
2023-03-27T17:11:22.850Z,6.60
2023-03-27T17:13:50.306Z,6.35
2023-03-27T17:16:16.952Z,6.33
2023-03-27T17:18:43.418Z,6.63
2023-03-27T17:21:10.278Z,6.92
2023-03-27T17:23:36.712Z,6.47
2023-03-27T17:26:04.995Z,6.28
2023-03-27T17:28:31.961Z,6.19
2023-03-27T17:31:04.769Z,6.14
2023-03-27T17:33:32.083Z,6.07
2023-03-27T17:35:58.788Z,6.11
2023-03-27T17:38:25.568Z,6.21
2023-03-27T17:40:52.052Z,6.11
2023-03-27T17:43:18.613Z,6.09
2023-03-27T17:45:45.449Z,6.01
2023-03-27T17:48:12.024Z,5.58
2023-03-27T17:50:39.468Z,5.66
2023-03-27T17:53:06.720Z,5.54
2023-03-27T17:55:33.230Z,5.58
2023-03-27T17:58:08.915Z,5.35
2023-03-27T18:00:37.203Z,5.28
2023-03-27T18:03:04.047Z,5.32
2023-03-27T18:05:30.631Z,5.33
2023-03-27T18:07:57.157Z,4.97
2023-03-27T18:10:24.314Z,4.89
2023-03-27T18:12:50.988Z,4.79
2023-03-27T18:15:17.379Z,4.51
2023-03-27T18:17:43.863Z,4.44
2023-03-27T18:20:10.688Z,4.39
2023-03-27T18:22:38.164Z,4.30
2023-03-27T18:25:06.873Z,4.36
2023-03-27T18:27:33.242Z,4.20
2023-03-27T18:29:59.742Z,3.98
2023-03-27T18:32:26.242Z,3.86
2023-03-27T18:34:52.660Z,3.81
2023-03-27T18:37:19.201Z,3.80
2023-03-27T18:39:46.724Z,3.91
2023-03-27T18:42:13.515Z,3.93
2023-03-27T18:44:41.431Z,4.23
2023-03-27T18:47:08.174Z,4.18
2023-03-27T18:49:34.641Z,4.27
2023-03-27T18:52:01.041Z,4.26
2023-03-27T18:54:28.104Z,4.34
2023-03-27T18:56:54.613Z,4.34
2023-03-27T18:59:22.610Z,4.47
2023-03-27T19:01:49.285Z,4.44
2023-03-27T19:04:17.259Z,4.55
2023-03-27T19:06:43.933Z,4.58
2023-03-27T19:09:10.325Z,4.51
2023-03-27T19:11:37.008Z,4.36
2023-03-27T19:14:03.482Z,4.35
2023-03-27T19:16:30.672Z,4.15
2023-03-27T19:18:57.055Z,4.19
2023-03-27T19:21:23.495Z,3.95
2023-03-27T19:23:50.212Z,4.29
2023-03-27T19:26:19.231Z,4.00
2023-03-27T19:28:47.560Z,4.28
2023-03-27T19:31:14.623Z,3.94
2023-03-27T19:33:41.803Z,4.17
2023-03-27T19:36:09.220Z,3.90
2023-03-27T19:38:37.270Z,4.01
2023-03-27T19:41:07.994Z,4.17
2023-03-27T19:43:34.763Z,4.07
2023-03-27T19:46:15.077Z,3.95
2023-03-27T19:48:43.242Z,3.93
2023-03-27T19:51:09.699Z,3.87
2023-03-27T19:53:36.481Z,4.11
2023-03-27T19:56:03.139Z,3.97
2023-03-27T19:58:29.683Z,4.17
2023-03-27T20:00:57.451Z,4.15
2023-03-27T20:03:27.452Z,4.00
2023-03-27T20:05:56.268Z,4.01
2023-03-27T20:08:38.023Z,3.93
2023-03-27T20:11:06.719Z,3.93
2023-03-27T20:13:39.547Z,3.89
2023-03-27T20:16:14.823Z,3.81
2023-03-27T20:18:42.682Z,3.49
2023-03-27T20:21:10.182Z,3.46
2023-03-27T20:23:37.661Z,3.35
2023-03-27T20:26:04.454Z,3.11
2023-03-27T20:28:30.847Z,3.45
2023-03-27T20:31:05.294Z,3.17
2023-03-27T20:33:32.072Z,2.87
2023-03-27T20:35:58.658Z,2.95
2023-03-27T20:38:28.726Z,3.01
2023-03-27T20:40:56.397Z,2.89
2023-03-27T20:43:23.437Z,2.83
2023-03-27T20:45:51.888Z,2.68
2023-03-27T20:48:21.653Z,2.73
2023-03-27T20:50:51.135Z,2.83
2023-03-27T20:53:30.385Z,3.00
2023-03-27T20:56:00.620Z,2.74
2023-03-27T20:58:27.949Z,2.79
2023-03-27T21:00:56.024Z,2.81
2023-03-27T21:03:22.802Z,2.70
2023-03-27T21:05:49.375Z,2.61
2023-03-27T21:08:16.253Z,2.70
2023-03-27T21:10:42.752Z,2.79
2023-03-27T21:13:09.178Z,2.89
2023-03-27T21:15:35.575Z,2.68
2023-03-27T21:18:02.080Z,2.76
2023-03-27T21:20:28.621Z,2.73
2023-03-27T21:22:55.327Z,2.57
2023-03-27T21:25:22.586Z,2.40
2023-03-27T21:27:49.107Z,2.51
2023-03-27T21:30:16.558Z,2.41
2023-03-27T21:32:43.516Z,2.61
2023-03-27T21:35:10.479Z,2.51
2023-03-27T21:37:36.893Z,2.66
2023-03-27T21:40:04.811Z,2.53
2023-03-27T21:42:31.168Z,2.89
2023-03-27T21:44:57.645Z,2.79
2023-03-27T21:47:29.678Z,2.70
2023-03-27T21:50:00.999Z,2.60
2023-03-27T21:52:27.663Z,2.44
2023-03-27T21:55:03.015Z,2.34
2023-03-27T21:57:30.202Z,2.30
2023-03-27T21:59:56.633Z,2.29
2023-03-27T22:02:23.069Z,2.10
2023-03-27T22:04:49.524Z,2.08
2023-03-27T22:07:16.029Z,1.91
2023-03-27T22:09:45.904Z,1.92
2023-03-27T22:12:12.990Z,1.96
2023-03-27T22:14:39.509Z,2.02
2023-03-27T22:17:06.116Z,2.21
2023-03-27T22:19:32.631Z,2.54
2023-03-27T22:21:59.050Z,2.85
2023-03-27T22:24:25.431Z,2.96
2023-03-27T22:26:51.915Z,2.99
2023-03-27T22:29:18.492Z,3.25
2023-03-27T22:31:45.036Z,3.25
2023-03-27T22:34:11.680Z,3.09
2023-03-27T22:36:38.421Z,3.26
2023-03-27T22:39:05.489Z,3.43
2023-03-27T22:41:31.916Z,3.06
2023-03-27T22:44:01.790Z,3.42
2023-03-27T22:46:28.356Z,3.19
2023-03-27T22:48:56.337Z,2.98
2023-03-27T22:51:23.264Z,2.73
2023-03-27T22:53:49.748Z,2.59
2023-03-27T22:56:17.942Z,2.30
2023-03-27T22:58:45.043Z,2.18
2023-03-27T23:01:11.474Z,2.10
2023-03-27T23:03:38.419Z,1.85
2023-03-27T23:06:05.289Z,1.89
2023-03-27T23:08:31.701Z,2.03
2023-03-27T23:11:05.732Z,1.79
2023-03-27T23:13:33.967Z,1.84
2023-03-27T23:16:01.021Z,1.73
2023-03-27T23:18:27.597Z,1.57
2023-03-27T23:20:58.541Z,1.69
2023-03-27T23:23:26.643Z,1.78
2023-03-27T23:25:53.840Z,1.81
2023-03-27T23:28:20.508Z,1.71
2023-03-27T23:30:54.714Z,1.57
2023-03-27T23:33:24.756Z,1.67
2023-03-27T23:35:52.642Z,1.58
2023-03-27T23:38:19.124Z,1.67
2023-03-27T23:40:45.458Z,1.68
2023-03-27T23:43:11.854Z,1.53
2023-03-27T23:45:38.226Z,1.55
2023-03-27T23:48:04.724Z,1.49
2023-03-27T23:50:31.126Z,1.42
2023-03-27T23:52:57.522Z,1.36
2023-03-27T23:55:23.871Z,1.47
2023-03-27T23:57:50.218Z,1.44
